sensor_id;sensor_type;location;lat;lon;timestamp;pressure;altitude;pressure_sealevel;temperature;humidity
21129;BME280;10722;51.910;8.352;2024-01-07T00:01:30;100816.53;;;0.77;100.00
21129;BME280;10722;51.910;8.352;2024-01-07T00:04:16;100815.50;;;0.88;100.00
21129;BME280;10722;51.910;8.352;2024-01-07T00:07:01;100823.72;;;0.84;100.00
21129;BME280;10722;51.910;8.352;2024-01-07T00:09:46;100824.88;;;0.89;100.00
21129;BME280;10722;51.910;8.352;2024-01-07T00:12:31;100813.72;;;0.73;100.00
21129;BME280;10722;51.910;8.352;2024-01-07T00:15:16;100824.53;;;0.83;100.00
21129;BME280;10722;51.910;8.352;2024-01-07T00:18:02;100817.41;;;0.78;100.00
21129;BME280;10722;51.910;8.352;2024-01-07T00:20:47;100827.59;;;0.78;100.00
21129;BME280;10722;51.910;8.352;2024-01-07T00:23:32;100828.31;;;0.75;100.00
21129;BME280;10722;51.910;8.352;2024-01-07T00:26:18;100830.44;;;0.82;100.00
21129;BME280;10722;51.910;8.352;2024-01-07T00:29:03;100847.09;;;0.62;100.00
21129;BME280;10722;51.910;8.352;2024-01-07T00:31:48;100851.03;;;0.72;100.00
21129;BME280;10722;51.910;8.352;2024-01-07T00:34:33;100852.53;;;0.69;100.00
21129;BME280;10722;51.910;8.352;2024-01-07T00:37:19;100848.22;;;0.67;100.00
21129;BME280;10722;51.910;8.352;2024-01-07T00:40:04;100847.19;;;0.79;100.00
21129;BME280;10722;51.910;8.352;2024-01-07T00:42:50;100839.47;;;0.77;100.00
21129;BME280;10722;51.910;8.352;2024-01-07T00:45:35;100851.31;;;0.77;100.00
21129;BME280;10722;51.910;8.352;2024-01-07T00:48:20;100846.19;;;0.62;100.00
21129;BME280;10722;51.910;8.352;2024-01-07T00:51:06;100847.00;;;0.76;100.00
21129;BME280;10722;51.910;8.352;2024-01-07T00:53:50;100843.22;;;0.84;100.00
21129;BME280;10722;51.910;8.352;2024-01-07T00:56:35;100854.63;;;0.76;100.00
21129;BME280;10722;51.910;8.352;2024-01-07T00:59:20;100858.44;;;0.82;100.00
21129;BME280;10722;51.910;8.352;2024-01-07T01:02:06;100860.63;;;0.76;100.00
21129;BME280;10722;51.910;8.352;2024-01-07T01:04:50;100850.34;;;0.60;100.00
21129;BME280;10722;51.910;8.352;2024-01-07T01:07:36;100857.88;;;0.73;100.00
21129;BME280;10722;51.910;8.352;2024-01-07T01:10:21;100851.91;;;0.58;100.00
21129;BME280;10722;51.910;8.352;2024-01-07T01:13:07;100857.81;;;0.72;100.00
21129;BME280;10722;51.910;8.352;2024-01-07T01:15:52;100860.41;;;0.58;100.00
21129;BME280;10722;51.910;8.352;2024-01-07T01:18:36;100866.50;;;0.75;100.00
21129;BME280;10722;51.910;8.352;2024-01-07T01:21:22;100866.31;;;0.72;100.00
21129;BME280;10722;51.910;8.352;2024-01-07T01:24:07;100880.63;;;0.70;100.00
21129;BME280;10722;51.910;8.352;2024-01-07T01:26:52;100885.91;;;0.73;100.00
21129;BME280;10722;51.910;8.352;2024-01-07T01:29:37;100897.94;;;0.76;100.00
21129;BME280;10722;51.910;8.352;2024-01-07T01:32:22;100900.88;;;0.82;100.00
21129;BME280;10722;51.910;8.352;2024-01-07T01:35:08;100903.13;;;0.77;100.00
21129;BME280;10722;51.910;8.352;2024-01-07T01:37:53;100901.16;;;0.73;100.00
21129;BME280;10722;51.910;8.352;2024-01-07T01:40:38;100908.69;;;0.85;100.00
21129;BME280;10722;51.910;8.352;2024-01-07T01:43:24;100909.22;;;0.79;100.00
21129;BME280;10722;51.910;8.352;2024-01-07T01:46:11;100914.91;;;0.90;100.00
21129;BME280;10722;51.910;8.352;2024-01-07T01:48:58;100909.78;;;0.75;100.00
21129;BME280;10722;51.910;8.352;2024-01-07T01:51:43;100917.53;;;0.77;100.00
21129;BME280;10722;51.910;8.352;2024-01-07T01:54:29;100922.88;;;0.81;100.00
21129;BME280;10722;51.910;8.352;2024-01-07T01:57:17;100921.75;;;0.76;100.00
21129;BME280;10722;51.910;8.352;2024-01-07T02:00:05;100921.84;;;0.78;100.00
21129;BME280;10722;51.910;8.352;2024-01-07T02:02:50;100927.25;;;0.69;100.00
21129;BME280;10722;51.910;8.352;2024-01-07T02:05:35;100936.28;;;0.64;100.00
21129;BME280;10722;51.910;8.352;2024-01-07T02:08:21;100936.81;;;0.73;100.00
21129;BME280;10722;51.910;8.352;2024-01-07T02:11:19;100936.06;;;0.74;100.00
21129;BME280;10722;51.910;8.352;2024-01-07T02:14:04;100940.78;;;0.96;100.00
21129;BME280;10722;51.910;8.352;2024-01-07T02:16:49;100934.06;;;0.83;100.00
21129;BME280;10722;51.910;8.352;2024-01-07T02:19:34;100943.91;;;0.64;100.00
21129;BME280;10722;51.910;8.352;2024-01-07T02:22:20;100941.75;;;0.70;100.00
21129;BME280;10722;51.910;8.352;2024-01-07T02:25:05;100941.75;;;0.70;100.00
21129;BME280;10722;51.910;8.352;2024-01-07T02:27:50;100942.34;;;0.66;100.00
21129;BME280;10722;51.910;8.352;2024-01-07T02:30:35;100945.19;;;0.71;100.00
21129;BME280;10722;51.910;8.352;2024-01-07T02:33:20;100944.72;;;0.63;100.00
21129;BME280;10722;51.910;8.352;2024-01-07T02:36:06;100939.47;;;0.47;100.00
21129;BME280;10722;51.910;8.352;2024-01-07T02:38:51;100936.22;;;0.62;100.00
21129;BME280;10722;51.910;8.352;2024-01-07T02:41:36;100943.34;;;0.68;100.00
21129;BME280;10722;51.910;8.352;2024-01-07T02:44:21;100932.56;;;0.59;100.00
21129;BME280;10722;51.910;8.352;2024-01-07T02:47:06;100941.19;;;0.61;100.00
21129;BME280;10722;51.910;8.352;2024-01-07T02:49:51;100943.66;;;0.59;100.00
21129;BME280;10722;51.910;8.352;2024-01-07T02:52:37;100949.56;;;0.73;100.00
21129;BME280;10722;51.910;8.352;2024-01-07T02:55:22;100938.75;;;0.62;100.00
21129;BME280;10722;51.910;8.352;2024-01-07T02:58:07;100939.63;;;0.63;100.00
21129;BME280;10722;51.910;8.352;2024-01-07T03:01:08;100951.41;;;0.76;100.00
21129;BME280;10722;51.910;8.352;2024-01-07T03:03:53;100947.16;;;0.89;100.00
21129;BME280;10722;51.910;8.352;2024-01-07T03:06:39;100940.50;;;0.63;100.00
21129;BME280;10722;51.910;8.352;2024-01-07T03:09:24;100941.00;;;0.58;100.00
21129;BME280;10722;51.910;8.352;2024-01-07T03:12:09;100942.34;;;0.66;100.00
21129;BME280;10722;51.910;8.352;2024-01-07T03:14:54;100935.31;;;0.62;100.00
21129;BME280;10722;51.910;8.352;2024-01-07T03:17:39;100940.72;;;0.53;100.00
21129;BME280;10722;51.910;8.352;2024-01-07T03:20:25;100944.75;;;0.50;100.00
21129;BME280;10722;51.910;8.352;2024-01-07T03:23:10;100940.16;;;0.44;100.00
21129;BME280;10722;51.910;8.352;2024-01-07T03:25:58;100948.34;;;0.53;100.00
21129;BME280;10722;51.910;8.352;2024-01-07T03:28:43;100959.16;;;0.49;100.00
21129;BME280;10722;51.910;8.352;2024-01-07T03:31:28;100957.97;;;0.44;100.00
21129;BME280;10722;51.910;8.352;2024-01-07T03:34:14;100962.94;;;0.56;100.00
21129;BME280;10722;51.910;8.352;2024-01-07T03:36:59;100967.84;;;0.53;100.00
21129;BME280;10722;51.910;8.352;2024-01-07T03:39:47;100964.78;;;0.58;100.00
21129;BME280;10722;51.910;8.352;2024-01-07T03:42:32;100965.03;;;0.48;100.00
21129;BME280;10722;51.910;8.352;2024-01-07T03:45:17;100969.19;;;0.61;100.00
21129;BME280;10722;51.910;8.352;2024-01-07T03:48:02;100969.41;;;0.51;100.00
21129;BME280;10722;51.910;8.352;2024-01-07T03:50:48;100976.09;;;0.49;100.00
21129;BME280;10722;51.910;8.352;2024-01-07T03:53:33;100978.63;;;0.49;100.00
21129;BME280;10722;51.910;8.352;2024-01-07T03:56:18;100978.03;;;0.39;100.00
21129;BME280;10722;51.910;8.352;2024-01-07T03:59:03;100982.56;;;0.43;100.00
21129;BME280;10722;51.910;8.352;2024-01-07T04:01:48;100990.50;;;0.35;100.00
21129;BME280;10722;51.910;8.352;2024-01-07T04:04:33;100994.88;;;0.51;100.00
21129;BME280;10722;51.910;8.352;2024-01-07T04:07:19;101001.84;;;0.40;100.00
21129;BME280;10722;51.910;8.352;2024-01-07T04:10:04;101002.53;;;0.37;100.00
21129;BME280;10722;51.910;8.352;2024-01-07T04:12:49;101002.72;;;0.40;100.00
21129;BME280;10722;51.910;8.352;2024-01-07T04:15:34;101010.94;;;0.36;100.00
21129;BME280;10722;51.910;8.352;2024-01-07T04:18:20;101004.97;;;0.22;100.00
21129;BME280;10722;51.910;8.352;2024-01-07T04:21:09;101021.91;;;0.35;100.00
21129;BME280;10722;51.910;8.352;2024-01-07T04:23:54;101019.00;;;0.42;100.00
21129;BME280;10722;51.910;8.352;2024-01-07T04:26:39;101026.81;;;0.32;100.00
21129;BME280;10722;51.910;8.352;2024-01-07T04:29:24;101030.44;;;0.36;100.00
21129;BME280;10722;51.910;8.352;2024-01-07T04:32:09;101020.97;;;0.20;100.00
21129;BME280;10722;51.910;8.352;2024-01-07T04:34:54;101024.38;;;0.20;100.00
21129;BME280;10722;51.910;8.352;2024-01-07T04:37:39;101031.13;;;0.33;100.00
21129;BME280;10722;51.910;8.352;2024-01-07T04:40:24;101031.41;;;0.25;100.00
21129;BME280;10722;51.910;8.352;2024-01-07T04:43:09;101031.53;;;0.26;100.00
21129;BME280;10722;51.910;8.352;2024-01-07T04:45:55;101025.84;;;0.04;100.00
21129;BME280;10722;51.910;8.352;2024-01-07T04:48:40;101042.59;;;0.00;100.00
21129;BME280;10722;51.910;8.352;2024-01-07T04:51:25;101041.78;;;0.01;100.00
21129;BME280;10722;51.910;8.352;2024-01-07T04:54:10;101047.94;;;-0.09;100.00
21129;BME280;10722;51.910;8.352;2024-01-07T04:56:55;101054.72;;;0.04;100.00
21129;BME280;10722;51.910;8.352;2024-01-07T04:59:40;101062.63;;;-0.05;100.00
21129;BME280;10722;51.910;8.352;2024-01-07T05:02:25;101063.19;;;-0.09;100.00
21129;BME280;10722;51.910;8.352;2024-01-07T05:05:10;101061.75;;;-0.05;100.00
21129;BME280;10722;51.910;8.352;2024-01-07T05:07:55;101065.84;;;-0.07;100.00
21129;BME280;10722;51.910;8.352;2024-01-07T05:10:40;101071.72;;;0.05;100.00
21129;BME280;10722;51.910;8.352;2024-01-07T05:13:25;101083.97;;;-0.03;100.00
21129;BME280;10722;51.910;8.352;2024-01-07T05:16:18;101077.44;;;-0.24;100.00
21129;BME280;10722;51.910;8.352;2024-01-07T05:19:03;101086.53;;;-0.28;100.00
21129;BME280;10722;51.910;8.352;2024-01-07T05:21:49;101098.53;;;-0.38;100.00
21129;BME280;10722;51.910;8.352;2024-01-07T05:24:37;101114.31;;;-0.31;100.00
21129;BME280;10722;51.910;8.352;2024-01-07T05:27:22;101115.84;;;-0.33;100.00
21129;BME280;10722;51.910;8.352;2024-01-07T05:30:07;101124.03;;;-0.37;100.00
21129;BME280;10722;51.910;8.352;2024-01-07T05:32:52;101133.53;;;-0.34;100.00
21129;BME280;10722;51.910;8.352;2024-01-07T05:35:37;101146.44;;;-0.31;100.00
21129;BME280;10722;51.910;8.352;2024-01-07T05:38:22;101145.50;;;-0.33;100.00
21129;BME280;10722;51.910;8.352;2024-01-07T05:41:08;101147.38;;;-0.42;100.00
21129;BME280;10722;51.910;8.352;2024-01-07T05:43:53;101149.38;;;-0.38;100.00
21129;BME280;10722;51.910;8.352;2024-01-07T05:46:38;101154.09;;;-0.31;100.00
21129;BME280;10722;51.910;8.352;2024-01-07T05:49:23;101150.16;;;-0.39;100.00
21129;BME280;10722;51.910;8.352;2024-01-07T05:52:09;101144.13;;;-0.53;100.00
21129;BME280;10722;51.910;8.352;2024-01-07T05:54:54;101139.75;;;-0.42;100.00
21129;BME280;10722;51.910;8.352;2024-01-07T05:57:39;101147.63;;;-0.51;100.00
21129;BME280;10722;51.910;8.352;2024-01-07T06:00:24;101144.34;;;-0.50;100.00
21129;BME280;10722;51.910;8.352;2024-01-07T06:03:10;101138.69;;;-0.46;100.00
21129;BME280;10722;51.910;8.352;2024-01-07T06:05:57;101148.28;;;-0.42;100.00
21129;BME280;10722;51.910;8.352;2024-01-07T06:08:43;101140.63;;;-0.30;100.00
21129;BME280;10722;51.910;8.352;2024-01-07T06:11:28;101140.19;;;-0.36;100.00
21129;BME280;10722;51.910;8.352;2024-01-07T06:14:13;101138.00;;;-0.43;100.00
21129;BME280;10722;51.910;8.352;2024-01-07T06:16:58;101137.00;;;-0.46;100.00
21129;BME280;10722;51.910;8.352;2024-01-07T06:19:43;101137.25;;;-0.54;100.00
21129;BME280;10722;51.910;8.352;2024-01-07T06:22:29;101139.59;;;-0.57;100.00
21129;BME280;10722;51.910;8.352;2024-01-07T06:25:14;101133.66;;;-0.58;100.00
21129;BME280;10722;51.910;8.352;2024-01-07T06:27:59;101135.41;;;-0.57;100.00
21129;BME280;10722;51.910;8.352;2024-01-07T06:30:44;101145.44;;;-0.47;100.00
21129;BME280;10722;51.910;8.352;2024-01-07T06:33:29;101140.66;;;-0.42;100.00
21129;BME280;10722;51.910;8.352;2024-01-07T06:36:14;101135.59;;;-0.54;100.00
21129;BME280;10722;51.910;8.352;2024-01-07T06:38:59;101148.31;;;-0.54;100.00
21129;BME280;10722;51.910;8.352;2024-01-07T06:41:44;101160.47;;;-0.50;100.00
21129;BME280;10722;51.910;8.352;2024-01-07T06:44:29;101155.94;;;-0.54;100.00
21129;BME280;10722;51.910;8.352;2024-01-07T06:47:14;101165.34;;;-0.53;100.00
21129;BME280;10722;51.910;8.352;2024-01-07T06:50:00;101170.63;;;-0.50;100.00
21129;BME280;10722;51.910;8.352;2024-01-07T06:52:46;101172.97;;;-0.53;100.00
21129;BME280;10722;51.910;8.352;2024-01-07T06:55:31;101171.88;;;-0.56;100.00
21129;BME280;10722;51.910;8.352;2024-01-07T06:58:16;101167.31;;;-0.49;100.00
21129;BME280;10722;51.910;8.352;2024-01-07T07:01:01;101165.63;;;-0.48;100.00
21129;BME280;10722;51.910;8.352;2024-01-07T07:03:47;101170.63;;;-0.50;100.00
21129;BME280;10722;51.910;8.352;2024-01-07T07:06:32;101170.09;;;-0.57;100.00
21129;BME280;10722;51.910;8.352;2024-01-07T07:09:17;101174.31;;;-0.58;100.00
21129;BME280;10722;51.910;8.352;2024-01-07T07:12:03;101181.81;;;-0.48;100.00
21129;BME280;10722;51.910;8.352;2024-01-07T07:14:48;101191.81;;;-0.37;100.00
21129;BME280;10722;51.910;8.352;2024-01-07T07:17:33;101193.41;;;-0.26;100.00
21129;BME280;10722;51.910;8.352;2024-01-07T07:20:18;101186.50;;;-0.40;100.00
21129;BME280;10722;51.910;8.352;2024-01-07T07:23:04;101198.47;;;-0.39;100.00
21129;BME280;10722;51.910;8.352;2024-01-07T07:25:48;101193.94;;;-0.43;100.00
21129;BME280;10722;51.910;8.352;2024-01-07T07:28:33;101204.31;;;-0.40;100.00
21129;BME280;10722;51.910;8.352;2024-01-07T07:31:19;101208.19;;;-0.34;99.64
21129;BME280;10722;51.910;8.352;2024-01-07T07:34:04;101210.63;;;-0.47;99.46
21129;BME280;10722;51.910;8.352;2024-01-07T07:36:50;101214.97;;;-0.58;99.48
21129;BME280;10722;51.910;8.352;2024-01-07T07:39:34;101219.16;;;-0.47;99.40
21129;BME280;10722;51.910;8.352;2024-01-07T07:42:19;101212.19;;;-0.49;99.21
21129;BME280;10722;51.910;8.352;2024-01-07T07:45:05;101217.38;;;-0.48;98.86
21129;BME280;10722;51.910;8.352;2024-01-07T07:47:50;101229.75;;;-0.52;98.97
21129;BME280;10722;51.910;8.352;2024-01-07T07:50:35;101224.94;;;-0.61;98.41
21129;BME280;10722;51.910;8.352;2024-01-07T07:53:21;101224.06;;;-0.73;98.39
21129;BME280;10722;51.910;8.352;2024-01-07T07:56:06;101233.31;;;-0.74;97.78
21129;BME280;10722;51.910;8.352;2024-01-07T07:58:51;101226.47;;;-0.63;97.37
21129;BME280;10722;51.910;8.352;2024-01-07T08:01:36;101229.25;;;-0.72;97.50
21129;BME280;10722;51.910;8.352;2024-01-07T08:04:21;101224.75;;;-0.76;97.26
21129;BME280;10722;51.910;8.352;2024-01-07T08:07:08;101226.03;;;-0.69;96.99
21129;BME280;10722;51.910;8.352;2024-01-07T08:09:53;101229.59;;;-0.67;96.78
21129;BME280;10722;51.910;8.352;2024-01-07T08:12:37;101238.16;;;-0.65;96.69
21129;BME280;10722;51.910;8.352;2024-01-07T08:15:22;101233.78;;;-0.68;96.44
21129;BME280;10722;51.910;8.352;2024-01-07T08:18:07;101229.34;;;-0.82;95.79
21129;BME280;10722;51.910;8.352;2024-01-07T08:20:53;101224.84;;;-0.86;95.63
21129;BME280;10722;51.910;8.352;2024-01-07T08:23:38;101234.13;;;-0.75;95.51
21129;BME280;10722;51.910;8.352;2024-01-07T08:26:23;101231.34;;;-0.66;95.83
21129;BME280;10722;51.910;8.352;2024-01-07T08:29:08;101228.69;;;-0.79;94.99
21129;BME280;10722;51.910;8.352;2024-01-07T08:31:53;101239.53;;;-0.82;94.81
21129;BME280;10722;51.910;8.352;2024-01-07T08:34:39;101232.47;;;-0.86;94.76
21129;BME280;10722;51.910;8.352;2024-01-07T08:37:24;101233.56;;;-0.82;94.35
21129;BME280;10722;51.910;8.352;2024-01-07T08:40:09;101242.81;;;-0.71;94.24
21129;BME280;10722;51.910;8.352;2024-01-07T08:42:55;101239.97;;;-0.76;93.53
21129;BME280;10722;51.910;8.352;2024-01-07T08:45:40;101241.84;;;-0.73;93.31
21129;BME280;10722;51.910;8.352;2024-01-07T08:48:25;101238.16;;;-0.65;92.86
21129;BME280;10722;51.910;8.352;2024-01-07T08:51:10;101222.38;;;-0.61;92.48
21129;BME280;10722;51.910;8.352;2024-01-07T08:53:57;101233.50;;;-0.47;92.60
21129;BME280;10722;51.910;8.352;2024-01-07T08:56:42;101222.81;;;-0.55;92.10
21129;BME280;10722;51.910;8.352;2024-01-07T08:59:27;101214.34;;;-0.67;91.55
21129;BME280;10722;51.910;8.352;2024-01-07T09:02:12;101189.91;;;-0.77;90.67
21129;BME280;10722;51.910;8.352;2024-01-07T09:04:57;101177.19;;;-0.65;89.89
21129;BME280;10722;51.910;8.352;2024-01-07T09:07:42;101157.75;;;-0.76;88.62
21129;BME280;10722;51.910;8.352;2024-01-07T09:10:27;101154.78;;;-0.71;87.99
21129;BME280;10722;51.910;8.352;2024-01-07T09:13:12;101145.22;;;-0.86;87.19
21129;BME280;10722;51.910;8.352;2024-01-07T09:15:58;101125.22;;;-0.94;86.61
21129;BME280;10722;51.910;8.352;2024-01-07T09:18:43;101123.56;;;-0.93;86.63
21129;BME280;10722;51.910;8.352;2024-01-07T09:21:28;101104.91;;;-0.94;85.95
21129;BME280;10722;51.910;8.352;2024-01-07T09:24:14;101105.94;;;-1.03;85.25
21129;BME280;10722;51.910;8.352;2024-01-07T09:26:59;101111.56;;;-1.07;84.94
21129;BME280;10722;51.910;8.352;2024-01-07T09:29:44;101122.09;;;-1.15;84.93
21129;BME280;10722;51.910;8.352;2024-01-07T09:32:29;101129.13;;;-1.10;84.84
21129;BME280;10722;51.910;8.352;2024-01-07T09:35:15;101133.53;;;-1.08;85.14
21129;BME280;10722;51.910;8.352;2024-01-07T09:38:00;101130.78;;;-1.11;84.88
21129;BME280;10722;51.910;8.352;2024-01-07T09:40:45;101151.22;;;-1.09;84.91
21129;BME280;10722;51.910;8.352;2024-01-07T09:43:30;101180.16;;;-0.96;85.28
21129;BME280;10722;51.910;8.352;2024-01-07T09:46:22;101167.44;;;-0.96;84.87
21129;BME280;10722;51.910;8.352;2024-01-07T09:49:07;101162.38;;;-0.96;84.42
21129;BME280;10722;51.910;8.352;2024-01-07T09:51:59;101176.38;;;-0.89;84.39
21129;BME280;10722;51.910;8.352;2024-01-07T09:54:50;101173.91;;;-0.87;83.83
21129;BME280;10722;51.910;8.352;2024-01-07T09:57:38;101184.59;;;-0.68;83.55
21129;BME280;10722;51.910;8.352;2024-01-07T10:00:28;101181.09;;;-0.70;83.76
21129;BME280;10722;51.910;8.352;2024-01-07T10:03:14;101184.94;;;-0.63;83.45
21129;BME280;10722;51.910;8.352;2024-01-07T10:05:59;101192.72;;;-0.49;83.39
21129;BME280;10722;51.910;8.352;2024-01-07T10:08:44;101189.22;;;-0.51;82.76
21129;BME280;10722;51.910;8.352;2024-01-07T10:11:29;101172.94;;;-0.41;82.37
21129;BME280;10722;51.910;8.352;2024-01-07T10:14:14;101170.91;;;-0.33;82.23
21129;BME280;10722;51.910;8.352;2024-01-07T10:16:59;101166.03;;;-0.30;81.88
21129;BME280;10722;51.910;8.352;2024-01-07T10:19:45;101162.25;;;-0.24;81.21
21129;BME280;10722;51.910;8.352;2024-01-07T10:22:31;101169.31;;;-0.19;81.35
21129;BME280;10722;51.910;8.352;2024-01-07T10:25:16;101136.41;;;-0.30;80.84
21129;BME280;10722;51.910;8.352;2024-01-07T10:28:03;101123.47;;;-0.58;80.11
21129;BME280;10722;51.910;8.352;2024-01-07T10:30:49;101146.56;;;-0.55;80.28
21129;BME280;10722;51.910;8.352;2024-01-07T10:33:34;101159.06;;;-0.58;80.57
21129;BME280;10722;51.910;8.352;2024-01-07T10:36:20;101177.72;;;-0.57;80.73
21129;BME280;10722;51.910;8.352;2024-01-07T10:39:05;101197.50;;;-0.53;80.83
21129;BME280;10722;51.910;8.352;2024-01-07T10:41:51;101181.31;;;-0.91;80.65
21129;BME280;10722;51.910;8.352;2024-01-07T10:44:38;101203.06;;;-0.82;81.08
21129;BME280;10722;51.910;8.352;2024-01-07T10:47:28;101208.06;;;-0.84;80.97
21129;BME280;10722;51.910;8.352;2024-01-07T10:50:15;101220.84;;;-0.82;81.40
21129;BME280;10722;51.910;8.352;2024-01-07T10:53:03;101235.56;;;-0.78;81.37
21129;BME280;10722;51.910;8.352;2024-01-07T10:55:57;101244.41;;;-0.73;81.54
21129;BME280;10722;51.910;8.352;2024-01-07T10:58:45;101228.59;;;-0.81;80.72
21129;BME280;10722;51.910;8.352;2024-01-07T11:01:32;101220.97;;;-0.81;81.13
21129;BME280;10722;51.910;8.352;2024-01-07T11:04:39;101233.78;;;-0.68;80.93
21129;BME280;10722;51.910;8.352;2024-01-07T11:07:45;101209.25;;;-0.91;80.13
21129;BME280;10722;51.910;8.352;2024-01-07T11:10:39;101210.81;;;-0.81;80.39
21129;BME280;10722;51.910;8.352;2024-01-07T11:13:37;101204.53;;;-0.86;80.18
21129;BME280;10722;51.910;8.352;2024-01-07T11:19:24;101226.47;;;-0.63;80.27
21129;BME280;10722;51.910;8.352;2024-01-07T11:22:22;101235.19;;;-0.48;80.26
21129;BME280;10722;51.910;8.352;2024-01-07T11:25:28;101217.69;;;-0.43;79.48
21129;BME280;10722;51.910;8.352;2024-01-07T11:28:13;101213.47;;;-0.31;79.58
21129;BME280;10722;51.910;8.352;2024-01-07T11:30:59;101200.88;;;-0.41;78.89
21129;BME280;10722;51.910;8.352;2024-01-07T11:33:49;101185.22;;;-0.47;78.87
21129;BME280;10722;51.910;8.352;2024-01-07T11:36:38;101193.38;;;-0.39;78.75
21129;BME280;10722;51.910;8.352;2024-01-07T11:39:23;101180.81;;;-0.50;78.64
21129;BME280;10722;51.910;8.352;2024-01-07T11:42:08;101198.47;;;-0.39;78.71
21129;BME280;10722;51.910;8.352;2024-01-07T11:44:54;101210.00;;;-0.31;78.78
21129;BME280;10722;51.910;8.352;2024-01-07T11:47:40;101222.97;;;-0.28;79.01
21129;BME280;10722;51.910;8.352;2024-01-07T11:50:25;101243.78;;;-0.09;79.17
21129;BME280;10722;51.910;8.352;2024-01-07T11:53:13;101239.28;;;-0.13;79.06
21129;BME280;10722;51.910;8.352;2024-01-07T11:55:58;101236.06;;;-0.10;78.89
21129;BME280;10722;51.910;8.352;2024-01-07T11:58:43;101238.06;;;-0.18;78.93
21129;BME280;10722;51.910;8.352;2024-01-07T12:01:28;101242.28;;;-0.18;79.16
21129;BME280;10722;51.910;8.352;2024-01-07T12:04:13;101251.00;;;-0.15;78.61
21129;BME280;10722;51.910;8.352;2024-01-07T12:06:59;101235.78;;;-0.27;78.66
21129;BME280;10722;51.910;8.352;2024-01-07T12:09:44;101227.72;;;-0.33;78.53
21129;BME280;10722;51.910;8.352;2024-01-07T12:12:29;101237.69;;;-0.36;78.92
21129;BME280;10722;51.910;8.352;2024-01-07T12:15:14;101244.06;;;-0.29;78.91
21129;BME280;10722;51.910;8.352;2024-01-07T12:18:00;101258.28;;;-0.08;78.99
21129;BME280;10722;51.910;8.352;2024-01-07T12:20:56;101258.47;;;-0.05;79.26
21129;BME280;10722;51.910;8.352;2024-01-07T12:23:41;101264.81;;;-0.11;78.98
21129;BME280;10722;51.910;8.352;2024-01-07T12:26:30;101278.22;;;-0.14;79.36
21129;BME280;10722;51.910;8.352;2024-01-07T12:29:15;101288.25;;;-0.15;79.50
21129;BME280;10722;51.910;8.352;2024-01-07T12:32:00;101298.09;;;-0.20;79.62
21129;BME280;10722;51.910;8.352;2024-01-07T12:34:45;101297.13;;;-0.22;79.59
21129;BME280;10722;51.910;8.352;2024-01-07T12:37:31;101295.34;;;-0.23;79.15
21129;BME280;10722;51.910;8.352;2024-01-07T12:40:15;101308.34;;;-0.07;79.68
21129;BME280;10722;51.910;8.352;2024-01-07T12:43:00;101317.66;;;-0.07;79.35
21129;BME280;10722;51.910;8.352;2024-01-07T12:45:47;101296.34;;;-0.21;79.27
21129;BME280;10722;51.910;8.352;2024-01-07T12:48:32;101309.84;;;-0.22;79.67
21129;BME280;10722;51.910;8.352;2024-01-07T12:51:18;101335.13;;;-0.12;79.84
21129;BME280;10722;51.910;8.352;2024-01-07T12:54:08;101347.97;;;-0.10;80.13
21129;BME280;10722;51.910;8.352;2024-01-07T12:56:53;101359.22;;;-0.07;80.43
21129;BME280;10722;51.910;8.352;2024-01-07T12:59:37;101368.19;;;-0.12;80.39
21129;BME280;10722;51.910;8.352;2024-01-07T13:02:22;101379.72;;;-0.05;80.54
21129;BME280;10722;51.910;8.352;2024-01-07T13:05:08;101367.66;;;-0.08;80.40
21129;BME280;10722;51.910;8.352;2024-01-07T13:07:53;101365.97;;;-0.07;80.42
21129;BME280;10722;51.910;8.352;2024-01-07T13:10:39;101382.44;;;0.10;80.31
21129;BME280;10722;51.910;8.352;2024-01-07T13:13:24;101377.03;;;-0.07;80.22
21129;BME280;10722;51.910;8.352;2024-01-07T13:16:10;101370.63;;;-0.02;80.21
21129;BME280;10722;51.910;8.352;2024-01-07T13:18:55;101371.84;;;-0.08;80.50
21129;BME280;10722;51.910;8.352;2024-01-07T13:21:41;101364.00;;;-0.11;79.90
21129;BME280;10722;51.910;8.352;2024-01-07T13:24:27;101373.81;;;0.08;79.95
21129;BME280;10722;51.910;8.352;2024-01-07T13:27:12;101364.97;;;-0.09;79.82
21129;BME280;10722;51.910;8.352;2024-01-07T13:29:58;101372.28;;;-0.02;80.25
21129;BME280;10722;51.910;8.352;2024-01-07T13:32:43;101385.53;;;0.17;80.72
21129;BME280;10722;51.910;8.352;2024-01-07T13:35:29;101381.91;;;-0.10;80.10
21129;BME280;10722;51.910;8.352;2024-01-07T13:38:13;101402.69;;;-0.04;80.85
21129;BME280;10722;51.910;8.352;2024-01-07T13:40:59;101411.09;;;-0.05;80.81
21129;BME280;10722;51.910;8.352;2024-01-07T13:43:44;101420.94;;;-0.09;80.87
21129;BME280;10722;51.910;8.352;2024-01-07T13:46:29;101433.34;;;-0.14;81.31
21129;BME280;10722;51.910;8.352;2024-01-07T13:49:15;101446.06;;;-0.14;81.59
21129;BME280;10722;51.910;8.352;2024-01-07T13:52:01;101455.03;;;-0.31;82.09
21129;BME280;10722;51.910;8.352;2024-01-07T13:54:46;101469.94;;;-0.24;82.15
21129;BME280;10722;51.910;8.352;2024-01-07T13:57:31;101477.56;;;-0.35;82.33
21129;BME280;10722;51.910;8.352;2024-01-07T14:00:16;101502.13;;;-0.24;82.84
21129;BME280;10722;51.910;8.352;2024-01-07T14:03:02;101505.22;;;-0.28;82.73
21129;BME280;10722;51.910;8.352;2024-01-07T14:05:47;101519.34;;;-0.20;83.05
21129;BME280;10722;51.910;8.352;2024-01-07T14:08:32;101509.59;;;-0.37;83.20
21129;BME280;10722;51.910;8.352;2024-01-07T14:11:18;101523.69;;;-0.19;83.09
21129;BME280;10722;51.910;8.352;2024-01-07T14:14:03;101527.34;;;-0.15;83.26
21129;BME280;10722;51.910;8.352;2024-01-07T14:16:48;101517.94;;;-0.28;83.26
21129;BME280;10722;51.910;8.352;2024-01-07T14:19:33;101530.75;;;-0.15;83.48
21129;BME280;10722;51.910;8.352;2024-01-07T14:22:21;101528.75;;;-0.31;83.69
21129;BME280;10722;51.910;8.352;2024-01-07T14:25:07;101544.34;;;-0.26;83.80
21129;BME280;10722;51.910;8.352;2024-01-07T14:27:52;101557.41;;;-0.21;84.34